createdAt,value
2018-01-26T00:00:02.643Z,6.60
2018-01-26T00:00:35.969Z,6.60
2018-01-26T00:01:09.640Z,6.60
2018-01-26T00:01:43.302Z,6.60
2018-01-26T00:02:16.978Z,6.60
2018-01-26T00:02:50.655Z,6.60
2018-01-26T00:03:25.113Z,6.60
2018-01-26T00:03:58.811Z,6.60
2018-01-26T00:04:32.507Z,6.60
2018-01-26T00:05:06.176Z,6.60
2018-01-26T00:05:39.850Z,6.60
2018-01-26T00:06:13.502Z,6.60
2018-01-26T00:06:47.925Z,6.60
2018-01-26T00:07:21.245Z,6.60
2018-01-26T00:07:54.638Z,6.60
2018-01-26T00:08:28.330Z,6.60
2018-01-26T00:09:01.991Z,6.60
2018-01-26T00:09:35.661Z,6.60
2018-01-26T00:10:09.323Z,6.60
2018-01-26T00:10:42.971Z,6.60
2018-01-26T00:11:16.636Z,6.60
2018-01-26T00:11:50.298Z,6.70
2018-01-26T00:12:24.742Z,6.70
2018-01-26T00:12:58.411Z,6.70
2018-01-26T00:13:32.865Z,6.70
2018-01-26T00:14:06.537Z,6.70
2018-01-26T00:14:40.212Z,6.70
2018-01-26T00:15:13.550Z,6.70
2018-01-26T00:15:47.213Z,6.70
2018-01-26T00:16:20.874Z,6.70
2018-01-26T00:16:54.526Z,6.70
2018-01-26T00:17:28.960Z,6.70
2018-01-26T00:18:02.635Z,6.70
2018-01-26T00:18:36.747Z,6.70
2018-01-26T00:19:10.408Z,6.70
2018-01-26T00:19:44.066Z,6.70
2018-01-26T00:20:17.737Z,6.70
2018-01-26T00:20:51.109Z,6.70
2018-01-26T00:21:24.779Z,6.70
2018-01-26T00:21:59.208Z,6.70
2018-01-26T00:22:32.874Z,6.70
2018-01-26T00:23:07.296Z,6.70
2018-01-26T00:23:40.991Z,6.70
2018-01-26T00:24:14.648Z,6.70
2018-01-26T00:24:49.077Z,6.70
2018-01-26T00:25:22.737Z,6.70
2018-01-26T00:25:57.163Z,6.70
2018-01-26T00:26:31.606Z,6.70
2018-01-26T00:27:05.270Z,6.70
2018-01-26T00:27:38.935Z,6.70
2018-01-26T00:28:13.389Z,6.70
2018-01-26T00:28:47.074Z,6.60
2018-01-26T00:29:20.734Z,6.70
2018-01-26T00:29:55.153Z,6.70
2018-01-26T00:30:28.817Z,6.60
2018-01-26T00:31:03.245Z,6.60
2018-01-26T00:31:36.912Z,6.60
2018-01-26T00:32:11.368Z,6.60
2018-01-26T00:32:45.047Z,6.60
2018-01-26T00:33:18.701Z,6.60
2018-01-26T00:33:53.165Z,6.60
2018-01-26T00:34:26.822Z,6.60
2018-01-26T00:35:00.498Z,6.60
2018-01-26T00:35:34.956Z,6.60
2018-01-26T00:36:08.642Z,6.60
2018-01-26T00:36:42.294Z,6.60
2018-01-26T00:37:15.959Z,6.50
2018-01-26T00:37:49.639Z,6.50
2018-01-26T00:38:23.368Z,6.50
2018-01-26T00:38:57.054Z,6.50
2018-01-26T00:39:30.714Z,6.50
2018-01-26T00:40:04.832Z,6.50
2018-01-26T00:40:38.663Z,6.50
2018-01-26T00:41:12.334Z,6.50
2018-01-26T00:41:45.996Z,6.50
2018-01-26T00:42:19.670Z,6.50
2018-01-26T00:42:53.339Z,6.40
2018-01-26T00:43:27.010Z,6.40
2018-01-26T00:44:00.739Z,6.40
2018-01-26T00:44:34.396Z,6.40
2018-01-26T00:45:08.071Z,6.40
2018-01-26T00:45:41.737Z,6.40
2018-01-26T00:46:16.168Z,6.40
2018-01-26T00:46:49.836Z,6.40
2018-01-26T00:47:23.504Z,6.40
2018-01-26T00:47:57.938Z,6.40
2018-01-26T00:48:31.594Z,6.30
2018-01-26T00:49:05.282Z,6.40
2018-01-26T00:49:38.988Z,6.40
2018-01-26T00:50:13.405Z,6.30
2018-01-26T00:50:47.850Z,6.30
2018-01-26T00:51:21.548Z,6.30
2018-01-26T00:51:55.213Z,6.30
2018-01-26T00:52:28.902Z,6.30
2018-01-26T00:53:02.602Z,6.30
2018-01-26T00:53:36.257Z,6.30
2018-01-26T00:54:10.718Z,6.30
2018-01-26T00:54:44.399Z,6.30
2018-01-26T00:55:18.086Z,6.30
2018-01-26T00:55:51.747Z,6.30
2018-01-26T00:56:25.422Z,6.30
2018-01-26T00:56:59.854Z,6.30
2018-01-26T00:57:33.515Z,6.30
2018-01-26T00:58:07.983Z,6.30
2018-01-26T00:58:41.653Z,6.30
2018-01-26T00:59:15.377Z,6.30
2018-01-26T00:59:49.054Z,6.30
2018-01-26T01:00:22.385Z,6.30
2018-01-26T01:00:56.053Z,6.30
2018-01-26T01:01:29.379Z,6.30
2018-01-26T01:02:03.046Z,6.30
2018-01-26T01:02:37.477Z,6.30
2018-01-26T01:03:11.158Z,6.30
2018-01-26T01:03:44.827Z,6.30
2018-01-26T01:04:19.266Z,6.30
2018-01-26T01:04:52.995Z,6.30
2018-01-26T01:05:26.652Z,6.30
2018-01-26T01:06:00.307Z,6.40
2018-01-26T01:06:33.970Z,6.40
2018-01-26T01:07:08.409Z,6.40
2018-01-26T01:07:42.100Z,6.40
2018-01-26T01:08:15.767Z,6.40
2018-01-26T01:08:50.212Z,6.40
2018-01-26T01:09:23.910Z,6.40
2018-01-26T01:09:57.240Z,6.40
2018-01-26T01:10:30.909Z,6.40
2018-01-26T01:11:04.585Z,6.40
2018-01-26T01:11:38.262Z,6.40
2018-01-26T01:12:11.957Z,6.40
2018-01-26T01:12:45.650Z,6.40
2018-01-26T01:13:19.318Z,6.40
2018-01-26T01:13:52.984Z,6.40
2018-01-26T01:14:26.697Z,6.50
2018-01-26T01:15:00.359Z,6.50
2018-01-26T01:15:34.801Z,6.50
2018-01-26T01:16:08.461Z,6.40
2018-01-26T01:16:42.889Z,6.50
2018-01-26T01:17:16.547Z,6.50
2018-01-26T01:17:50.995Z,6.50
2018-01-26T01:18:24.662Z,6.50
2018-01-26T01:18:58.477Z,6.50
2018-01-26T01:19:32.166Z,6.50
2018-01-26T01:20:05.830Z,6.50
2018-01-26T01:20:40.255Z,6.50
2018-01-26T01:21:13.909Z,6.50
2018-01-26T01:21:48.349Z,6.50
2018-01-26T01:22:22.033Z,6.50
2018-01-26T01:22:55.716Z,6.50
2018-01-26T01:23:29.384Z,6.50
2018-01-26T01:24:03.042Z,6.50
2018-01-26T01:24:36.740Z,6.50
2018-01-26T01:25:10.410Z,6.50
2018-01-26T01:25:44.106Z,6.50
2018-01-26T01:26:17.782Z,6.50
2018-01-26T01:26:51.442Z,6.60
2018-01-26T01:27:25.111Z,6.60
2018-01-26T01:27:59.565Z,6.50
2018-01-26T01:28:33.224Z,6.60
2018-01-26T01:29:07.693Z,6.50
2018-01-26T01:29:42.177Z,6.50
2018-01-26T01:30:15.850Z,6.50
2018-01-26T01:30:49.509Z,6.50
2018-01-26T01:31:23.950Z,6.50
2018-01-26T01:31:57.605Z,6.50
2018-01-26T01:32:32.031Z,6.60
2018-01-26T01:33:05.705Z,6.50
2018-01-26T01:33:39.055Z,6.60
2018-01-26T01:34:12.717Z,6.50
2018-01-26T01:34:46.414Z,6.50
2018-01-26T01:35:20.094Z,6.60
2018-01-26T01:35:53.758Z,6.50
2018-01-26T01:36:27.094Z,6.50
2018-01-26T01:37:00.756Z,6.50
2018-01-26T01:37:34.425Z,6.50
2018-01-26T01:38:08.087Z,6.50
2018-01-26T01:38:42.568Z,6.60
2018-01-26T01:39:16.268Z,6.60
2018-01-26T01:39:49.962Z,6.60
2018-01-26T01:40:23.643Z,6.60
2018-01-26T01:40:57.314Z,6.60
2018-01-26T01:41:31.000Z,6.60
2018-01-26T01:42:04.665Z,6.60
2018-01-26T01:42:38.331Z,6.60
2018-01-26T01:43:12.428Z,6.60
2018-01-26T01:43:46.870Z,6.60
2018-01-26T01:44:20.522Z,6.60
2018-01-26T01:44:54.989Z,6.60
2018-01-26T01:45:28.649Z,6.60
2018-01-26T01:46:02.326Z,6.60
2018-01-26T01:46:35.996Z,6.60
2018-01-26T01:47:10.423Z,6.60
2018-01-26T01:47:44.869Z,6.60
2018-01-26T01:48:18.546Z,6.60
2018-01-26T01:49:03.395Z,6.60
2018-01-26T01:49:37.061Z,6.60
2018-01-26T01:50:10.747Z,6.50
2018-01-26T01:50:44.410Z,6.60
2018-01-26T01:51:18.848Z,6.60
2018-01-26T01:51:52.338Z,6.60
2018-01-26T01:52:26.018Z,6.60
2018-01-26T01:52:59.777Z,6.60
2018-01-26T01:53:33.451Z,6.50
2018-01-26T01:54:07.126Z,6.60
2018-01-26T01:54:40.811Z,6.60
2018-01-26T01:55:14.698Z,6.60
2018-01-26T01:55:48.383Z,6.60
2018-01-26T01:56:22.052Z,6.60
2018-01-26T01:56:55.745Z,6.60
2018-01-26T01:57:29.401Z,6.60
2018-01-26T01:58:04.589Z,6.60
2018-01-26T01:58:38.275Z,6.60
2018-01-26T01:59:11.946Z,6.60
2018-01-26T01:59:45.626Z,6.60
2018-01-26T02:00:19.317Z,6.60
2018-01-26T02:00:52.810Z,6.60
2018-01-26T02:01:26.473Z,6.60
2018-01-26T02:02:00.909Z,6.60
2018-01-26T02:02:34.568Z,6.60
2018-01-26T02:03:09.006Z,6.60
2018-01-26T02:03:42.672Z,6.60
2018-01-26T02:04:17.105Z,6.60
2018-01-26T02:04:50.795Z,6.60
2018-01-26T02:05:24.474Z,6.50
2018-01-26T02:05:58.141Z,6.60
2018-01-26T02:06:32.577Z,6.50
2018-01-26T02:07:06.250Z,6.50
2018-01-26T02:07:40.715Z,6.50
2018-01-26T02:08:14.436Z,6.50
2018-01-26T02:08:48.873Z,6.50
2018-01-26T02:09:22.546Z,6.50
2018-01-26T02:09:56.227Z,6.50
2018-01-26T02:10:30.710Z,6.50
2018-01-26T02:11:04.419Z,6.50
2018-01-26T02:11:38.239Z,6.50
2018-01-26T02:12:11.903Z,6.50
2018-01-26T02:12:46.341Z,6.50
2018-01-26T02:13:20.018Z,6.50
2018-01-26T02:13:53.693Z,6.50
2018-01-26T02:14:28.130Z,6.50
2018-01-26T02:15:01.465Z,6.40
2018-01-26T02:15:35.155Z,6.40
2018-01-26T02:16:08.817Z,6.50
2018-01-26T02:16:42.489Z,6.50
2018-01-26T02:17:16.154Z,6.50
2018-01-26T02:17:49.819Z,6.50
2018-01-26T02:18:23.494Z,6.50
2018-01-26T02:18:57.161Z,6.50
2018-01-26T02:19:30.503Z,6.50
2018-01-26T02:20:03.839Z,6.50
2018-01-26T02:20:37.539Z,6.50
2018-01-26T02:21:11.253Z,6.50
2018-01-26T02:21:45.073Z,6.50
2018-01-26T02:22:18.748Z,6.50
2018-01-26T02:22:52.525Z,6.50
2018-01-26T02:23:26.978Z,6.50
2018-01-26T02:24:00.654Z,6.40
2018-01-26T02:24:34.318Z,6.50
2018-01-26T02:25:08.749Z,6.50
2018-01-26T02:25:42.451Z,6.40
2018-01-26T02:26:16.117Z,6.50
2018-01-26T02:26:49.783Z,6.50
2018-01-26T02:27:23.448Z,6.50
2018-01-26T02:27:57.120Z,6.40
2018-01-26T02:28:30.801Z,6.40
2018-01-26T02:29:04.476Z,6.40
2018-01-26T02:29:38.149Z,6.40
2018-01-26T02:30:11.495Z,6.40
2018-01-26T02:30:45.190Z,6.40
2018-01-26T02:31:18.866Z,6.40
2018-01-26T02:31:52.529Z,6.40
2018-01-26T02:32:26.195Z,6.40
2018-01-26T02:32:59.877Z,6.40
2018-01-26T02:33:33.613Z,6.40
2018-01-26T02:34:07.295Z,6.40
2018-01-26T02:34:40.963Z,6.40
2018-01-26T02:35:14.627Z,6.40
2018-01-26T02:35:49.081Z,6.40
2018-01-26T02:36:22.761Z,6.40
2018-01-26T02:36:56.415Z,6.40
2018-01-26T02:37:30.858Z,6.40
2018-01-26T02:38:04.564Z,6.30
2018-01-26T02:38:38.253Z,6.40
2018-01-26T02:39:11.906Z,6.40
2018-01-26T02:39:46.347Z,6.30
2018-01-26T02:40:20.021Z,6.30
2018-01-26T02:40:53.714Z,6.30
2018-01-26T02:41:27.384Z,6.30
2018-01-26T02:42:01.837Z,6.30
2018-01-26T02:42:35.510Z,6.30
2018-01-26T02:43:09.174Z,6.30
2018-01-26T02:43:42.851Z,6.30
2018-01-26T02:44:16.522Z,6.30
2018-01-26T02:44:50.947Z,6.30
2018-01-26T02:45:25.366Z,6.30
2018-01-26T02:45:59.081Z,6.30
2018-01-26T02:46:32.752Z,6.30
2018-01-26T02:47:06.412Z,6.30
2018-01-26T02:47:41.387Z,6.30
2018-01-26T02:48:15.055Z,6.30
2018-01-26T02:48:48.727Z,6.30
2018-01-26T02:49:22.387Z,6.30
2018-01-26T02:49:56.821Z,6.30
2018-01-26T02:50:31.250Z,6.30
2018-01-26T02:51:04.946Z,6.30
2018-01-26T02:51:39.310Z,6.30
2018-01-26T02:52:13.756Z,6.30
2018-01-26T02:52:47.418Z,6.30
2018-01-26T02:53:21.093Z,6.30
2018-01-26T02:53:55.530Z,6.30
2018-01-26T02:54:29.191Z,6.30
2018-01-26T02:55:03.278Z,6.30
2018-01-26T02:55:36.962Z,6.30
2018-01-26T02:56:10.637Z,6.30
2018-01-26T02:56:44.314Z,6.30
2018-01-26T02:57:17.985Z,6.30
2018-01-26T02:57:51.648Z,6.30
2018-01-26T02:58:26.098Z,6.30
2018-01-26T02:58:59.779Z,6.20
2018-01-26T02:59:33.447Z,6.30
2018-01-26T03:00:06.791Z,6.30
2018-01-26T03:00:40.463Z,6.30
2018-01-26T03:01:14.157Z,6.30
2018-01-26T03:01:47.827Z,6.30
2018-01-26T03:02:21.489Z,6.30
2018-01-26T03:02:55.166Z,6.30
2018-01-26T03:03:29.584Z,6.30
2018-01-26T03:04:03.262Z,6.20
2018-01-26T03:04:36.938Z,6.30
2018-01-26T03:05:11.420Z,6.30
2018-01-26T03:05:45.990Z,6.20
2018-01-26T03:06:19.689Z,6.20
2018-01-26T03:06:53.373Z,6.30
2018-01-26T03:07:27.033Z,6.20
2018-01-26T03:08:01.467Z,6.30
2018-01-26T03:08:34.800Z,6.20
2018-01-26T03:09:08.486Z,6.20
2018-01-26T03:09:42.195Z,6.30
2018-01-26T03:10:16.629Z,6.30
2018-01-26T03:10:50.273Z,6.20
2018-01-26T03:11:23.994Z,6.30
2018-01-26T03:11:58.437Z,6.30
2018-01-26T03:12:32.103Z,6.20
2018-01-26T03:13:05.754Z,6.30
2018-01-26T03:13:39.446Z,6.30
2018-01-26T03:14:13.114Z,6.30
2018-01-26T03:14:46.783Z,6.30
2018-01-26T03:15:20.463Z,6.30
2018-01-26T03:15:54.143Z,6.30
2018-01-26T03:16:27.837Z,6.30
2018-01-26T03:17:01.511Z,6.20
2018-01-26T03:17:35.179Z,6.20
2018-01-26T03:18:09.610Z,6.20
2018-01-26T03:18:44.036Z,6.20
2018-01-26T03:19:17.701Z,6.20
2018-01-26T03:19:51.195Z,6.20
2018-01-26T03:20:24.862Z,6.20
2018-01-26T03:20:58.526Z,6.20
2018-01-26T03:21:32.209Z,6.20
2018-01-26T03:22:05.875Z,6.20
2018-01-26T03:22:39.550Z,6.20
2018-01-26T03:23:12.878Z,6.20
2018-01-26T03:23:46.581Z,6.20
2018-01-26T03:24:20.270Z,6.20
2018-01-26T03:24:53.953Z,6.20
2018-01-26T03:25:27.613Z,6.20
2018-01-26T03:26:01.278Z,6.20
2018-01-26T03:26:34.985Z,6.20
2018-01-26T03:27:08.655Z,6.20
2018-01-26T03:27:42.316Z,6.20
2018-01-26T03:28:16.016Z,6.20
2018-01-26T03:28:50.253Z,6.20
2018-01-26T03:29:23.910Z,6.20
2018-01-26T03:29:58.345Z,6.20
2018-01-26T03:30:32.015Z,6.10
2018-01-26T03:31:05.690Z,6.20
2018-01-26T03:31:40.145Z,6.20
2018-01-26T03:32:13.814Z,6.20
2018-01-26T03:32:47.474Z,6.20
2018-01-26T03:33:21.913Z,6.10
2018-01-26T03:33:55.556Z,6.10
2018-01-26T03:34:29.214Z,6.10
2018-01-26T03:35:02.898Z,6.10
2018-01-26T03:35:36.573Z,6.10
2018-01-26T03:36:10.228Z,6.10
2018-01-26T03:36:44.678Z,6.10
2018-01-26T03:37:18.338Z,6.10
2018-01-26T03:37:52.780Z,6.10
2018-01-26T03:38:26.438Z,6.10
2018-01-26T03:39:00.551Z,6.10
2018-01-26T03:39:34.214Z,6.10
2018-01-26T03:40:08.633Z,6.10
2018-01-26T03:40:42.309Z,6.10
2018-01-26T03:41:16.796Z,6.10
2018-01-26T03:41:50.633Z,6.10
2018-01-26T03:42:24.295Z,6.10
2018-01-26T03:42:58.722Z,6.10
2018-01-26T03:43:32.378Z,6.10
2018-01-26T03:44:06.091Z,6.10
2018-01-26T03:44:40.524Z,6.10
2018-01-26T03:45:14.191Z,6.10
2018-01-26T03:45:48.654Z,6.10
2018-01-26T03:46:23.246Z,6.10
2018-01-26T03:46:56.933Z,6.10
2018-01-26T03:47:30.625Z,6.10
2018-01-26T03:48:04.297Z,6.10
2018-01-26T03:48:37.970Z,6.10
2018-01-26T03:49:12.416Z,6.10
2018-01-26T03:49:46.479Z,6.20
2018-01-26T03:50:20.465Z,6.10
2018-01-26T03:50:54.913Z,6.20
2018-01-26T03:51:28.581Z,6.20
2018-01-26T03:52:02.302Z,6.20
2018-01-26T03:52:40.840Z,6.20
2018-01-26T03:53:14.523Z,6.20
2018-01-26T03:53:48.446Z,6.20
2018-01-26T03:54:22.602Z,6.20
2018-01-26T03:54:56.284Z,6.20
2018-01-26T03:55:29.958Z,6.20
2018-01-26T03:56:03.638Z,6.20
2018-01-26T03:56:37.373Z,6.20
2018-01-26T03:57:11.069Z,6.20
2018-01-26T03:57:44.787Z,6.20
2018-01-26T03:58:19.235Z,6.20
2018-01-26T03:58:52.913Z,6.20
2018-01-26T03:59:26.658Z,6.20
2018-01-26T04:00:00.340Z,6.20
2018-01-26T04:00:34.029Z,6.20
2018-01-26T04:01:07.689Z,6.20
2018-01-26T04:01:41.359Z,6.20
2018-01-26T04:02:15.052Z,6.20
2018-01-26T04:02:48.732Z,6.20
2018-01-26T04:03:22.396Z,6.20
2018-01-26T04:03:56.842Z,6.20
2018-01-26T04:04:30.521Z,6.20
2018-01-26T04:05:03.857Z,6.20
2018-01-26T04:05:37.553Z,6.20
2018-01-26T04:06:11.243Z,6.20
2018-01-26T04:06:44.917Z,6.20
2018-01-26T04:07:18.623Z,6.20
2018-01-26T04:07:52.325Z,6.20
2018-01-26T04:08:26.800Z,6.20
2018-01-26T04:09:00.485Z,6.20
2018-01-26T04:09:34.141Z,6.20
2018-01-26T04:10:07.803Z,6.20
2018-01-26T04:10:42.226Z,6.20
2018-01-26T04:11:16.648Z,6.20
2018-01-26T04:11:50.302Z,6.20
2018-01-26T04:12:24.762Z,6.20
2018-01-26T04:12:58.426Z,6.20
2018-01-26T04:13:32.083Z,6.30
2018-01-26T04:14:05.772Z,6.20
2018-01-26T04:14:39.443Z,6.20
2018-01-26T04:15:13.117Z,6.20
2018-01-26T04:15:46.776Z,6.30
2018-01-26T04:16:20.457Z,6.20
2018-01-26T04:16:54.149Z,6.30
2018-01-26T04:17:27.826Z,6.20
2018-01-26T04:18:02.453Z,6.30
2018-01-26T04:18:36.131Z,6.30
2018-01-26T04:19:10.576Z,6.30
2018-01-26T04:19:44.233Z,6.20
2018-01-26T04:20:18.665Z,6.30
2018-01-26T04:20:52.321Z,6.30
2018-01-26T04:21:26.766Z,6.30
2018-01-26T04:22:00.422Z,6.30
2018-01-26T04:22:34.114Z,6.30
2018-01-26T04:23:07.773Z,6.30
2018-01-26T04:23:41.455Z,6.30
2018-01-26T04:24:15.107Z,6.30
2018-01-26T04:24:48.777Z,6.30
2018-01-26T04:25:22.456Z,6.30
2018-01-26T04:25:56.893Z,6.30
2018-01-26T04:26:30.548Z,6.30
2018-01-26T04:27:05.257Z,6.30
2018-01-26T04:27:39.734Z,6.30
2018-01-26T04:28:13.478Z,6.30
2018-01-26T04:28:47.142Z,6.30
2018-01-26T04:29:21.571Z,6.30
2018-01-26T04:29:55.041Z,6.30
2018-01-26T04:30:29.286Z,6.30
2018-01-26T04:31:02.969Z,6.30
2018-01-26T04:31:36.633Z,6.30
2018-01-26T04:32:10.289Z,6.30
2018-01-26T04:32:43.969Z,6.30
2018-01-26T04:33:17.635Z,6.30
2018-01-26T04:33:51.343Z,6.30
2018-01-26T04:34:25.011Z,6.30
2018-01-26T04:34:58.671Z,6.30
2018-01-26T04:35:33.129Z,6.30
2018-01-26T04:36:06.795Z,6.30
2018-01-26T04:36:40.450Z,6.30
2018-01-26T04:37:14.882Z,6.30
2018-01-26T04:37:48.577Z,6.30
2018-01-26T04:38:22.231Z,6.30
2018-01-26T04:38:56.669Z,6.30
2018-01-26T04:39:30.322Z,6.30
2018-01-26T04:40:04.422Z,6.30
2018-01-26T04:40:38.849Z,6.30
2018-01-26T04:41:13.272Z,6.30
2018-01-26T04:41:46.925Z,6.30
2018-01-26T04:42:21.366Z,6.30
2018-01-26T04:42:55.057Z,6.30
2018-01-26T04:43:28.721Z,6.30
2018-01-26T04:44:03.146Z,6.30
2018-01-26T04:44:36.827Z,6.30
2018-01-26T04:45:10.522Z,6.30
2018-01-26T04:45:44.197Z,6.40
2018-01-26T04:46:18.614Z,6.30
2018-01-26T04:46:52.302Z,6.30
2018-01-26T04:47:26.734Z,6.30
2018-01-26T04:48:00.420Z,6.30
2018-01-26T04:48:34.078Z,6.30
2018-01-26T04:49:08.505Z,6.30
2018-01-26T04:49:41.840Z,6.30
2018-01-26T04:50:15.506Z,6.30
2018-01-26T04:50:49.181Z,6.30
2018-01-26T04:51:22.860Z,6.30
2018-01-26T04:51:56.522Z,6.30
2018-01-26T04:52:30.958Z,6.30
2018-01-26T04:53:04.650Z,6.30
2018-01-26T04:53:38.158Z,6.30
2018-01-26T04:54:11.857Z,6.30
2018-01-26T04:54:45.514Z,6.30
2018-01-26T04:55:19.198Z,6.30
2018-01-26T04:55:52.874Z,6.30
2018-01-26T04:56:27.303Z,6.30
2018-01-26T04:57:00.968Z,6.30
2018-01-26T04:57:34.652Z,6.30
2018-01-26T04:58:09.101Z,6.30
2018-01-26T04:58:42.753Z,6.30
2018-01-26T04:59:16.430Z,6.30
2018-01-26T04:59:50.843Z,6.30
2018-01-26T05:00:25.278Z,6.30
2018-01-26T05:00:58.611Z,6.30
2018-01-26T05:01:32.265Z,6.30
2018-01-26T05:02:05.930Z,6.40
2018-01-26T05:02:39.721Z,6.30
2018-01-26T05:03:13.409Z,6.30
2018-01-26T05:03:47.090Z,6.30
2018-01-26T05:04:21.520Z,6.30
2018-01-26T05:04:55.186Z,6.30
2018-01-26T05:05:28.966Z,6.30
2018-01-26T05:06:02.833Z,6.30
2018-01-26T05:06:36.502Z,6.30
2018-01-26T05:07:10.170Z,6.30
2018-01-26T05:07:43.831Z,6.30
2018-01-26T05:08:18.323Z,6.30
2018-01-26T05:08:51.994Z,6.30
2018-01-26T05:09:25.668Z,6.30
2018-01-26T05:09:59.330Z,6.30
2018-01-26T05:10:33.005Z,6.30
2018-01-26T05:11:06.672Z,6.30
2018-01-26T05:11:40.059Z,6.30
2018-01-26T05:12:13.722Z,6.30
2018-01-26T05:12:47.385Z,6.30
2018-01-26T05:13:20.881Z,6.30
2018-01-26T05:13:54.533Z,6.30
2018-01-26T05:14:28.970Z,6.30
2018-01-26T05:15:02.649Z,6.30
2018-01-26T05:15:36.323Z,6.30
2018-01-26T05:16:10.153Z,6.30
2018-01-26T05:16:43.805Z,6.40
2018-01-26T05:17:17.474Z,6.30
2018-01-26T05:17:51.134Z,6.40
2018-01-26T05:18:24.832Z,6.40
2018-01-26T05:18:58.498Z,6.40
2018-01-26T05:19:32.154Z,6.40
2018-01-26T05:20:05.474Z,6.40
2018-01-26T05:20:39.142Z,6.40
2018-01-26T05:21:12.802Z,6.40
2018-01-26T05:21:47.258Z,6.40
2018-01-26T05:22:21.855Z,6.40
2018-01-26T05:22:55.517Z,6.40
2018-01-26T05:23:29.970Z,6.40
2018-01-26T05:24:03.638Z,6.40
2018-01-26T05:24:37.305Z,6.40
2018-01-26T05:25:10.974Z,6.40
2018-01-26T05:25:45.403Z,6.40
2018-01-26T05:26:19.070Z,6.40
2018-01-26T05:26:53.500Z,6.40
2018-01-26T05:27:27.153Z,6.40
2018-01-26T05:28:00.830Z,6.40
2018-01-26T05:28:34.524Z,6.40
2018-01-26T05:29:08.195Z,6.40
2018-01-26T05:29:41.873Z,6.40
2018-01-26T05:30:15.546Z,6.40
2018-01-26T05:30:49.222Z,6.50
2018-01-26T05:31:23.659Z,6.50
2018-01-26T05:31:57.318Z,6.40
2018-01-26T05:32:31.737Z,6.50
2018-01-26T05:33:05.452Z,6.40
2018-01-26T05:33:39.165Z,6.50
2018-01-26T05:34:12.829Z,6.50
2018-01-26T05:34:46.520Z,6.50
2018-01-26T05:35:20.208Z,6.50
2018-01-26T05:35:53.897Z,6.50
2018-01-26T05:36:27.557Z,6.50
2018-01-26T05:37:01.221Z,6.50
2018-01-26T05:37:34.954Z,6.50
2018-01-26T05:38:09.446Z,6.50
2018-01-26T05:38:43.893Z,6.50
2018-01-26T05:39:17.569Z,6.50
2018-01-26T05:39:51.266Z,6.50
2018-01-26T05:40:24.920Z,6.50
2018-01-26T05:40:59.356Z,6.50
2018-01-26T05:41:33.022Z,6.50
2018-01-26T05:42:06.692Z,6.60
2018-01-26T05:42:41.109Z,6.60
2018-01-26T05:43:14.770Z,6.50
2018-01-26T05:43:48.477Z,6.60
2018-01-26T05:44:23.677Z,6.60
2018-01-26T05:44:57.346Z,6.60
2018-01-26T05:45:30.997Z,6.60
2018-01-26T05:46:05.422Z,6.60
2018-01-26T05:46:39.090Z,6.60
2018-01-26T05:47:13.519Z,6.60
2018-01-26T05:47:47.173Z,6.60
2018-01-26T05:48:21.607Z,6.60
2018-01-26T05:48:55.301Z,6.60
2018-01-26T05:49:28.970Z,6.60
2018-01-26T05:50:03.410Z,6.60
2018-01-26T05:50:37.077Z,6.60
2018-01-26T05:51:10.768Z,6.60
2018-01-26T05:51:44.446Z,6.60
2018-01-26T05:52:18.894Z,6.60
2018-01-26T05:52:52.568Z,6.60
2018-01-26T05:53:26.242Z,6.70
2018-01-26T05:53:59.934Z,6.70
2018-01-26T05:54:33.605Z,6.70
2018-01-26T05:55:08.050Z,6.70
2018-01-26T05:55:41.723Z,6.70
2018-01-26T05:56:15.392Z,6.70
2018-01-26T05:56:49.805Z,6.70
2018-01-26T05:57:24.253Z,6.70
2018-01-26T05:57:57.931Z,6.70
2018-01-26T05:58:31.586Z,6.70
2018-01-26T05:59:06.053Z,6.70
2018-01-26T05:59:39.721Z,6.70
2018-01-26T06:00:13.209Z,6.70
2018-01-26T06:00:46.878Z,6.70
2018-01-26T06:01:20.546Z,6.70
2018-01-26T06:01:54.990Z,6.70
2018-01-26T06:02:28.658Z,6.70
2018-01-26T06:03:02.329Z,6.80
2018-01-26T06:03:36.757Z,6.80
2018-01-26T06:04:10.436Z,6.70
2018-01-26T06:04:44.858Z,6.80
2018-01-26T06:05:18.603Z,6.80
2018-01-26T06:05:52.290Z,6.80
2018-01-26T06:06:25.979Z,6.80
2018-01-26T06:06:59.660Z,6.80
2018-01-26T06:07:33.322Z,6.80
2018-01-26T06:08:06.990Z,6.80
2018-01-26T06:08:40.655Z,6.80
2018-01-26T06:09:14.346Z,6.80
2018-01-26T06:09:48.785Z,6.80
2018-01-26T06:10:22.446Z,6.80
2018-01-26T06:10:56.873Z,6.80
2018-01-26T06:11:30.558Z,6.80
2018-01-26T06:12:05.001Z,6.80
2018-01-26T06:12:38.477Z,6.80
2018-01-26T06:13:11.963Z,6.80
2018-01-26T06:13:45.650Z,6.80
2018-01-26T06:14:19.001Z,6.80
2018-01-26T06:14:53.435Z,6.80
2018-01-26T06:15:27.102Z,6.80
2018-01-26T06:16:01.589Z,6.80
2018-01-26T06:16:35.261Z,6.80
2018-01-26T06:17:08.765Z,6.80
2018-01-26T06:17:42.255Z,6.80
2018-01-26T06:18:16.514Z,6.80
2018-01-26T06:18:50.172Z,6.80
2018-01-26T06:19:23.871Z,6.80
2018-01-26T06:19:57.541Z,6.70
2018-01-26T06:20:32.023Z,6.70
2018-01-26T06:21:05.685Z,6.70
2018-01-26T06:21:38.830Z,6.70
2018-01-26T06:22:12.306Z,6.70
2018-01-26T06:22:46.746Z,6.70
2018-01-26T06:23:20.432Z,6.70
2018-01-26T06:23:54.108Z,6.70
2018-01-26T06:24:27.606Z,6.70
2018-01-26T06:25:01.074Z,6.70
2018-01-26T06:25:34.670Z,6.70
2018-01-26T06:26:08.152Z,6.70
2018-01-26T06:26:41.808Z,6.70
2018-01-26T06:27:16.114Z,6.70
2018-01-26T06:27:50.362Z,6.70
2018-01-26T06:28:23.822Z,6.70
2018-01-26T06:28:57.287Z,6.70
2018-01-26T06:29:31.557Z,6.70
2018-01-26T06:30:04.711Z,6.60
2018-01-26T06:30:38.193Z,6.70
2018-01-26T06:31:11.680Z,6.70
2018-01-26T06:31:45.017Z,6.60
2018-01-26T06:32:19.454Z,6.70
2018-01-26T06:32:53.214Z,6.60
2018-01-26T06:33:26.881Z,6.70
2018-01-26T06:34:00.537Z,6.70
2018-01-26T06:34:34.226Z,6.70
2018-01-26T06:35:07.900Z,6.70
2018-01-26T06:35:41.571Z,6.70
2018-01-26T06:36:16.002Z,6.70
2018-01-26T06:36:49.696Z,6.60
2018-01-26T06:37:23.361Z,6.70
2018-01-26T06:37:57.849Z,6.70
2018-01-26T06:38:31.522Z,6.60
2018-01-26T06:39:04.542Z,6.70
2018-01-26T06:39:38.229Z,6.70
2018-01-26T06:40:11.903Z,6.70
2018-01-26T06:40:46.346Z,6.70
2018-01-26T06:41:20.010Z,6.60
2018-01-26T06:41:54.443Z,6.70
2018-01-26T06:42:28.115Z,6.70
2018-01-26T06:43:01.781Z,6.70
2018-01-26T06:43:36.211Z,6.70
2018-01-26T06:44:09.893Z,6.70
2018-01-26T06:44:44.349Z,6.70
2018-01-26T06:45:18.022Z,6.60
2018-01-26T06:45:51.685Z,6.70
2018-01-26T06:46:25.370Z,6.70
2018-01-26T06:46:59.045Z,6.70
2018-01-26T06:47:33.468Z,6.70
2018-01-26T06:48:07.905Z,6.70
2018-01-26T06:48:41.562Z,6.70
2018-01-26T06:49:15.995Z,6.70
2018-01-26T06:49:49.695Z,6.70
2018-01-26T06:50:23.344Z,6.70
2018-01-26T06:50:57.786Z,6.70
2018-01-26T06:51:31.443Z,6.70
2018-01-26T06:52:05.877Z,6.70
2018-01-26T06:52:39.537Z,6.70
2018-01-26T06:53:13.966Z,6.70
2018-01-26T06:53:47.634Z,6.70
2018-01-26T06:54:22.607Z,6.70
2018-01-26T06:54:56.315Z,6.70
2018-01-26T06:55:29.970Z,6.70
2018-01-26T06:56:03.665Z,6.70
2018-01-26T06:56:37.319Z,6.70
2018-01-26T06:57:10.991Z,6.70
2018-01-26T06:57:45.435Z,6.70
2018-01-26T06:58:19.099Z,6.70
2018-01-26T06:58:53.535Z,6.70
2018-01-26T06:59:27.195Z,6.70
2018-01-26T07:00:01.693Z,6.70
2018-01-26T07:00:36.115Z,6.70
2018-01-26T07:01:10.554Z,6.80
2018-01-26T07:01:44.210Z,6.70
2018-01-26T07:02:18.633Z,6.80
2018-01-26T07:02:52.298Z,6.70
2018-01-26T07:03:26.735Z,6.80
2018-01-26T07:04:00.407Z,6.80
2018-01-26T07:04:34.841Z,6.80
2018-01-26T07:05:08.528Z,6.70
2018-01-26T07:05:42.204Z,6.70
2018-01-26T07:06:15.864Z,6.80
2018-01-26T07:06:49.535Z,6.80
2018-01-26T07:07:23.214Z,6.80
2018-01-26T07:07:56.879Z,6.80
2018-01-26T07:08:30.557Z,6.80
2018-01-26T07:09:03.569Z,6.80
2018-01-26T07:09:37.227Z,6.80
2018-01-26T07:10:10.949Z,6.80
2018-01-26T07:10:44.618Z,6.80
2018-01-26T07:11:18.290Z,6.80
2018-01-26T07:11:51.945Z,6.80
2018-01-26T07:12:25.606Z,6.80
2018-01-26T07:12:59.271Z,6.80
2018-01-26T07:13:32.951Z,6.80
2018-01-26T07:14:06.646Z,6.80
2018-01-26T07:14:41.978Z,6.80
2018-01-26T07:15:15.673Z,6.80
2018-01-26T07:15:49.158Z,6.80
2018-01-26T07:16:22.810Z,6.80
2018-01-26T07:16:57.059Z,6.80
2018-01-26T07:17:30.551Z,6.80
2018-01-26T07:18:03.885Z,6.80
2018-01-26T07:18:38.316Z,6.80
2018-01-26T07:19:12.005Z,6.80
2018-01-26T07:19:46.605Z,6.80
2018-01-26T07:20:20.313Z,6.80
2018-01-26T07:20:53.970Z,6.80
2018-01-26T07:21:27.634Z,6.80
2018-01-26T07:22:01.303Z,6.80
2018-01-26T07:22:34.971Z,6.80
2018-01-26T07:23:08.642Z,6.80
2018-01-26T07:23:42.325Z,6.80
2018-01-26T07:24:16.013Z,6.80
2018-01-26T07:24:49.520Z,6.80
2018-01-26T07:25:23.226Z,6.80
2018-01-26T07:25:56.895Z,6.80
2018-01-26T07:26:30.554Z,6.80
2018-01-26T07:27:04.974Z,6.80
2018-01-26T07:27:38.631Z,6.70
2018-01-26T07:28:12.289Z,6.70
2018-01-26T07:28:45.946Z,6.70
2018-01-26T07:29:19.625Z,6.80
2018-01-26T07:29:54.045Z,6.70
2018-01-26T07:30:27.808Z,6.70